Time;durP1;ratioP1;P1;durP2;ratioP2;P2;SDS_P1;SDS_P2;PMS_P1;PMS_P2;Temp;Humidity;BMP_temperature;BMP_pressure;BME280_temperature;BME280_humidity;BME280_pressure;Samples;Min_cycle;Max_cycle;Signal;HPM_P1;HPM_P2
2024/01/06 00:02:06;;;;;;;12.83;7.20;;;7.20;99.90;;;;;;4970345;28;39205;-75
2024/01/06 00:04:32;;;;;;;17.03;7.07;;;7.20;99.90;;;;;;4964329;28;37457;-75
2024/01/06 00:06:59;;;;;;;10.17;6.73;;;7.20;99.90;;;;;;4973607;28;39273;-75
2024/01/06 00:09:25;;;;;;;10.63;6.80;;;7.10;99.90;;;;;;4968735;28;40224;-75
2024/01/06 00:11:51;;;;;;;12.47;6.40;;;7.20;99.90;;;;;;4959873;28;38745;-75
2024/01/06 00:14:17;;;;;;;9.03;6.17;;;7.10;99.90;;;;;;4964386;28;38509;-75
2024/01/06 00:16:43;;;;;;;13.37;7.20;;;7.10;99.90;;;;;;4964809;28;40641;-75
2024/01/06 00:19:10;;;;;;;11.00;7.00;;;7.10;99.90;;;;;;4991731;28;37647;-74
2024/01/06 00:21:36;;;;;;;15.10;7.70;;;7.10;99.90;;;;;;4983423;28;38817;-75
2024/01/06 00:24:02;;;;;;;11.30;7.30;;;7.00;99.90;;;;;;4983430;28;38214;-76
2024/01/06 00:26:28;;;;;;;10.03;6.90;;;7.00;99.90;;;;;;4972233;28;39770;-76
2024/01/06 00:28:54;;;;;;;9.23;6.73;;;7.00;99.90;;;;;;4990261;28;39308;-75
2024/01/06 00:31:20;;;;;;;14.67;7.13;;;7.00;99.90;;;;;;4981130;28;38889;-75
2024/01/06 00:33:46;;;;;;;13.90;6.43;;;7.00;99.90;;;;;;4965419;28;37470;-75
2024/01/06 00:36:13;;;;;;;9.20;6.07;;;7.00;99.90;;;;;;4977021;28;38853;-75
2024/01/06 00:38:39;;;;;;;10.03;6.40;;;7.00;99.90;;;;;;4967040;28;39008;-75
2024/01/06 00:41:05;;;;;;;9.37;6.50;;;7.00;99.90;;;;;;4957930;28;38353;-75
2024/01/06 00:43:31;;;;;;;13.73;6.00;;;6.90;99.90;;;;;;5000067;28;37610;-75
2024/01/06 00:45:57;;;;;;;8.20;6.33;;;6.90;99.90;;;;;;4972592;28;38584;-75
2024/01/06 00:48:24;;;;;;;9.27;6.80;;;6.90;99.90;;;;;;4960184;28;38914;-75
2024/01/06 00:50:50;;;;;;;9.80;6.67;;;6.90;99.90;;;;;;4969029;28;38934;-75
2024/01/06 00:53:16;;;;;;;8.03;6.60;;;6.90;99.90;;;;;;4972994;28;35946;-76
2024/01/06 00:55:42;;;;;;;11.57;7.23;;;6.90;99.90;;;;;;4997351;28;38630;-75
2024/01/06 00:58:08;;;;;;;9.97;6.23;;;6.90;99.90;;;;;;4981613;28;39841;-75
2024/01/06 01:00:34;;;;;;;9.50;6.70;;;6.90;99.90;;;;;;4964370;28;38607;-75
2024/01/06 01:03:00;;;;;;;10.37;6.33;;;6.90;99.90;;;;;;4968720;28;38530;-75
2024/01/06 01:05:27;;;;;;;11.43;6.83;;;6.80;99.90;;;;;;4967602;28;40228;-75
2024/01/06 01:07:53;;;;;;;9.23;6.87;;;6.80;99.90;;;;;;4966371;28;37808;-76
2024/01/06 01:10:19;;;;;;;13.23;7.90;;;6.90;99.90;;;;;;4976738;28;40223;-75
2024/01/06 01:12:45;;;;;;;8.93;6.27;;;6.80;99.90;;;;;;4970431;28;38331;-75
2024/01/06 01:15:11;;;;;;;10.53;7.07;;;6.80;99.90;;;;;;4997290;28;41353;-76
2024/01/06 01:17:37;;;;;;;9.90;6.97;;;6.80;99.90;;;;;;4962951;28;39260;-75
2024/01/06 01:20:04;;;;;;;9.93;7.57;;;6.80;99.90;;;;;;4986409;28;38002;-75
2024/01/06 01:22:30;;;;;;;12.97;6.33;;;6.80;99.90;;;;;;4968336;28;47156;-75
2024/01/06 01:24:56;;;;;;;9.17;6.23;;;6.80;99.90;;;;;;4987251;28;38707;-75
2024/01/06 01:27:23;;;;;;;11.03;6.33;;;6.80;99.90;;;;;;4978071;28;39135;-75
2024/01/06 01:29:52;;;;;;;10.23;6.60;;;6.80;99.90;;;;;;4974387;28;39316;-75
2024/01/06 01:32:18;;;;;;;9.40;5.83;;;6.80;99.90;;;;;;4973723;28;37565;-75
2024/01/06 01:34:45;;;;;;;12.77;6.47;;;6.70;99.90;;;;;;4972813;28;40130;-75
2024/01/06 01:37:11;;;;;;;15.13;7.03;;;6.70;99.90;;;;;;4995352;28;38765;-76
2024/01/06 01:39:37;;;;;;;11.40;6.70;;;6.70;99.90;;;;;;4987422;28;39568;-74
2024/01/06 01:42:03;;;;;;;14.37;6.87;;;6.70;99.90;;;;;;4988818;28;37233;-75
2024/01/06 01:44:29;;;;;;;11.97;7.13;;;6.70;99.90;;;;;;4967317;28;40478;-75
2024/01/06 01:46:56;;;;;;;12.27;6.83;;;6.70;99.90;;;;;;4971915;28;40125;-75
2024/01/06 01:49:22;;;;;;;10.70;7.80;;;6.70;99.90;;;;;;4964720;28;39198;-76
2024/01/06 01:51:49;;;;;;;10.37;8.13;;;6.80;99.90;;;;;;4973076;28;38908;-76
2024/01/06 01:54:15;;;;;;;14.33;7.60;;;6.80;99.90;;;;;;4985798;28;38721;-75
2024/01/06 01:56:42;;;;;;;13.47;8.40;;;6.70;99.90;;;;;;4990235;28;39399;-76
2024/01/06 01:59:13;;;;;;;13.07;7.57;;;6.80;99.90;;;;;;4977560;28;38618;-75
2024/01/06 02:04:15;;;;;;;13.70;6.00;;;6.70;99.90;;;;;;4347590;23;20059;-79
2024/01/06 02:06:41;;;;;;;11.07;4.97;;;6.70;99.90;;;;;;5012849;28;38901;-79
2024/01/06 02:09:08;;;;;;;8.90;4.67;;;6.70;99.90;;;;;;5028403;28;40013;-80
2024/01/06 02:11:35;;;;;;;7.67;4.00;;;6.70;99.90;;;;;;5031316;28;38508;-80
2024/01/06 02:14:01;;;;;;;8.70;3.70;;;6.70;99.90;;;;;;5026666;28;41454;-80
2024/01/06 02:16:27;;;;;;;6.73;3.90;;;6.70;99.90;;;;;;5015025;28;47293;-81
2024/01/06 02:18:54;;;;;;;11.50;4.37;;;6.70;99.90;;;;;;5017714;28;37584;-80
2024/01/06 02:21:22;;;;;;;5.67;3.03;;;6.70;99.90;;;;;;5005860;28;37546;-80
2024/01/06 02:23:49;;;;;;;7.57;3.30;;;6.70;99.90;;;;;;5027326;28;39391;-79
2024/01/06 02:26:17;;;;;;;6.73;3.40;;;6.60;99.90;;;;;;5026102;28;38846;-80
2024/01/06 02:28:47;;;;;;;3.27;2.50;;;6.60;99.90;;;;;;5016171;28;40404;-79
2024/01/06 02:31:14;;;;;;;3.23;1.60;;;6.60;99.90;;;;;;5013415;28;37173;-80
2024/01/06 02:33:40;;;;;;;5.07;2.10;;;6.60;99.90;;;;;;5012596;28;38000;-80
2024/01/06 02:36:07;;;;;;;3.83;1.20;;;6.60;99.90;;;;;;5017023;28;37695;-80
2024/01/06 02:38:33;;;;;;;5.97;1.20;;;6.60;99.90;;;;;;5030995;28;38546;-80
2024/01/06 02:41:04;;;;;;;2.67;1.23;;;6.50;99.90;;;;;;5031907;28;37907;-80
2024/01/06 02:43:31;;;;;;;3.20;1.60;;;6.50;99.90;;;;;;5027670;28;48733;-80
2024/01/06 02:45:57;;;;;;;3.77;2.20;;;6.50;99.90;;;;;;5011177;28;38833;-80
2024/01/06 02:48:24;;;;;;;7.43;2.30;;;6.50;99.90;;;;;;5011988;28;36842;-80
2024/01/06 02:50:50;;;;;;;7.00;2.60;;;6.50;99.90;;;;;;5025572;28;38232;-80
2024/01/06 02:53:16;;;;;;;7.43;3.13;;;6.40;99.90;;;;;;5014259;28;37714;-81
2024/01/06 02:55:42;;;;;;;8.30;2.50;;;6.30;99.90;;;;;;5016531;28;37719;-81
2024/01/06 02:58:08;;;;;;;6.40;2.60;;;6.30;99.90;;;;;;5030425;28;38938;-80
2024/01/06 03:00:35;;;;;;;5.50;2.67;;;6.30;99.90;;;;;;5008818;28;36668;-79
2024/01/06 03:03:01;;;;;;;5.90;2.90;;;6.30;99.90;;;;;;5026880;28;38912;-80
2024/01/06 03:05:27;;;;;;;5.43;2.57;;;6.30;99.90;;;;;;5007479;28;48604;-81
2024/01/06 03:07:55;;;;;;;7.73;3.30;;;6.20;99.90;;;;;;5031379;28;37725;-80
2024/01/06 03:10:24;;;;;;;12.67;4.87;;;6.20;99.90;;;;;;5022359;28;38702;-81
2024/01/06 03:12:50;;;;;;;8.43;2.80;;;6.20;99.90;;;;;;5028212;28;39045;-80
2024/01/06 03:15:23;;;;;;;7.20;3.33;;;6.10;99.90;;;;;;5025485;28;37976;-81
2024/01/06 03:17:49;;;;;;;14.23;3.77;;;6.10;99.90;;;;;;5011103;28;37612;-81
2024/01/06 03:20:15;;;;;;;8.33;3.80;;;6.10;99.90;;;;;;5009246;28;36258;-80
2024/01/06 03:22:42;;;;;;;6.33;3.47;;;6.00;99.90;;;;;;5027244;28;38837;-81
2024/01/06 03:25:09;;;;;;;8.47;4.07;;;6.00;99.90;;;;;;5025220;28;38506;-80
2024/01/06 03:27:35;;;;;;;8.13;3.93;;;6.10;99.90;;;;;;5009412;28;37757;-80
2024/01/06 03:30:01;;;;;;;9.40;4.33;;;6.10;99.90;;;;;;5007306;28;35743;-81
2024/01/06 03:32:28;;;;;;;10.67;5.30;;;6.10;99.90;;;;;;5021085;28;38979;-81
2024/01/06 03:34:57;;;;;;;7.33;4.43;;;6.10;99.90;;;;;;5005412;28;37840;-80
2024/01/06 03:37:24;;;;;;;8.43;4.37;;;6.00;99.90;;;;;;5015852;28;38390;-81
2024/01/06 03:39:50;;;;;;;8.20;5.10;;;6.00;99.90;;;;;;4998963;28;37572;-80
2024/01/06 03:42:16;;;;;;;10.03;4.90;;;6.00;99.90;;;;;;5000853;28;37922;-81
2024/01/06 03:44:42;;;;;;;8.90;4.93;;;6.10;99.90;;;;;;5005685;28;39986;-81
2024/01/06 03:47:09;;;;;;;8.50;5.10;;;6.00;99.90;;;;;;5023738;28;38478;-82
2024/01/06 03:49:35;;;;;;;8.50;5.63;;;6.10;99.90;;;;;;5017671;28;36187;-81
2024/01/06 03:52:04;;;;;;;11.00;6.43;;;6.10;99.90;;;;;;5021511;28;39617;-81
2024/01/06 03:54:31;;;;;;;11.20;5.73;;;6.10;99.90;;;;;;5019924;28;48741;-80
2024/01/06 03:56:57;;;;;;;7.77;5.80;;;6.10;99.90;;;;;;5003653;28;37163;-80
2024/01/06 03:59:23;;;;;;;12.70;5.90;;;6.10;99.90;;;;;;5003102;28;36202;-81
2024/01/06 04:01:49;;;;;;;10.27;5.60;;;6.10;99.90;;;;;;5003646;28;41388;-81
2024/01/06 04:04:15;;;;;;;9.47;5.97;;;6.00;99.90;;;;;;5004493;28;38021;-82
2024/01/06 04:06:41;;;;;;;14.90;6.23;;;6.00;99.90;;;;;;5006069;28;37298;-80
2024/01/06 04:09:09;;;;;;;11.83;5.80;;;6.10;99.90;;;;;;5000496;28;36029;-80
2024/01/06 04:11:35;;;;;;;12.57;5.73;;;6.00;99.90;;;;;;4998681;28;38046;-80
2024/01/06 04:14:01;;;;;;;11.77;6.27;;;6.00;99.90;;;;;;5020651;28;38648;-81
2024/01/06 04:16:27;;;;;;;9.73;5.63;;;6.00;99.90;;;;;;4994806;28;47279;-81
2024/01/06 04:18:54;;;;;;;13.00;5.73;;;6.00;99.90;;;;;;4996990;28;38060;-81
2024/01/06 04:21:20;;;;;;;7.83;5.73;;;6.00;99.90;;;;;;5023757;28;38411;-81
2024/01/06 04:23:46;;;;;;;13.03;5.87;;;6.00;99.90;;;;;;5011490;28;38572;-82
2024/01/06 04:26:13;;;;;;;10.53;5.50;;;5.90;99.90;;;;;;5029146;28;40032;-81
2024/01/06 04:28:39;;;;;;;11.43;5.10;;;6.00;99.90;;;;;;5007686;28;36569;-80
2024/01/06 04:31:07;;;;;;;8.30;4.80;;;6.00;99.90;;;;;;5025748;28;41549;-80
2024/01/06 04:33:36;;;;;;;9.53;5.30;;;5.90;99.90;;;;;;5026453;28;37815;-81
2024/01/06 04:36:02;;;;;;;8.90;5.37;;;5.90;99.90;;;;;;5013544;28;39627;-79
2024/01/06 04:38:28;;;;;;;12.43;5.57;;;5.90;99.90;;;;;;5018981;28;39846;-81
2024/01/06 04:40:56;;;;;;;8.47;5.80;;;5.90;99.90;;;;;;5012718;28;37819;-79
2024/01/06 04:43:22;;;;;;;9.87;5.60;;;5.90;99.90;;;;;;5008217;28;37532;-80
2024/01/06 04:45:50;;;;;;;9.47;5.00;;;5.90;99.90;;;;;;5016545;28;37560;-81
2024/01/06 04:48:16;;;;;;;8.00;4.90;;;5.80;99.90;;;;;;5010066;28;36355;-81
2024/01/06 04:50:42;;;;;;;9.90;4.70;;;5.80;99.90;;;;;;4998173;28;39340;-80
2024/01/06 04:53:08;;;;;;;8.07;5.40;;;5.80;99.90;;;;;;5004659;28;37845;-80
2024/01/06 04:55:34;;;;;;;8.70;4.80;;;5.80;99.90;;;;;;4999086;28;40431;-81
2024/01/06 04:58:00;;;;;;;8.87;5.27;;;5.80;99.90;;;;;;5027675;28;37405;-82
2024/01/06 05:00:27;;;;;;;10.17;5.70;;;5.80;99.90;;;;;;5009044;28;38343;-79
2024/01/06 05:02:53;;;;;;;12.97;5.17;;;5.80;99.90;;;;;;5010104;28;40389;-81
2024/01/06 05:05:33;;;;;;;6.67;4.93;;;5.70;99.90;;;;;;5027118;28;39749;-81
2024/01/06 05:08:00;;;;;;;11.27;5.77;;;5.70;99.90;;;;;;5009262;28;37995;-80
2024/01/06 05:10:27;;;;;;;9.33;5.70;;;5.60;99.90;;;;;;5009858;28;21400;-81
2024/01/06 05:12:53;;;;;;;8.17;5.40;;;5.70;99.90;;;;;;5029539;28;40043;-81
2024/01/06 05:15:20;;;;;;;7.57;5.40;;;5.70;99.90;;;;;;5023898;28;39267;-80
2024/01/06 05:17:49;;;;;;;8.17;5.37;;;5.60;99.90;;;;;;5018788;28;37745;-80
2024/01/06 05:20:15;;;;;;;8.23;4.50;;;5.60;99.90;;;;;;5023399;28;41426;-80
2024/01/06 05:22:41;;;;;;;7.67;5.00;;;5.70;99.90;;;;;;5020880;28;39722;-81
2024/01/06 05:25:08;;;;;;;10.37;4.73;;;5.60;99.90;;;;;;5005799;28;37692;-80
2024/01/06 05:27:35;;;;;;;7.40;5.00;;;5.60;99.90;;;;;;5022368;28;38830;-80
2024/01/06 05:30:03;;;;;;;7.00;5.23;;;5.60;99.90;;;;;;5024713;28;41495;-81
2024/01/06 05:32:29;;;;;;;7.33;5.07;;;5.60;99.90;;;;;;5009508;28;38991;-81
2024/01/06 05:34:55;;;;;;;8.10;5.47;;;5.60;99.90;;;;;;5023241;28;38204;-80
2024/01/06 05:37:21;;;;;;;10.53;5.47;;;5.60;99.90;;;;;;5024787;28;38397;-82
2024/01/06 05:39:47;;;;;;;7.87;6.00;;;5.60;99.90;;;;;;5005605;28;40319;-81
2024/01/06 05:42:36;;;;;;;10.37;6.63;;;5.60;99.90;;;;;;5023033;28;38911;-81
2024/01/06 05:45:03;;;;;;;10.67;6.40;;;5.60;99.90;;;;;;5006858;28;37152;-80
2024/01/06 05:47:30;;;;;;;9.23;5.90;;;5.60;99.90;;;;;;5006956;28;46323;-81
2024/01/06 05:49:57;;;;;;;7.63;5.30;;;5.50;99.90;;;;;;5028861;28;38389;-81
2024/01/06 05:52:23;;;;;;;7.90;4.90;;;5.50;99.90;;;;;;5027569;28;39743;-80
2024/01/06 05:54:49;;;;;;;8.30;4.50;;;5.50;99.90;;;;;;5025123;28;39910;-82
2024/01/06 05:57:16;;;;;;;9.87;5.20;;;5.50;99.90;;;;;;5023785;28;38624;-81
2024/01/06 05:59:42;;;;;;;8.87;4.47;;;5.40;99.90;;;;;;5021091;28;39562;-82
2024/01/06 06:02:08;;;;;;;8.40;4.50;;;5.40;99.90;;;;;;5002457;28;38653;-83
2024/01/06 06:04:34;;;;;;;6.23;4.27;;;5.40;99.90;;;;;;5008063;28;37258;-82
2024/01/06 06:07:00;;;;;;;5.77;4.27;;;5.40;99.90;;;;;;5004846;28;36645;-81
2024/01/06 06:09:28;;;;;;;6.23;4.17;;;5.40;99.90;;;;;;5022400;28;38289;-82
2024/01/06 06:11:54;;;;;;;8.07;5.03;;;5.40;99.90;;;;;;5023347;28;39041;-79
2024/01/06 06:14:21;;;;;;;9.80;5.50;;;5.40;99.90;;;;;;5007658;28;37605;-81
2024/01/06 06:16:49;;;;;;;10.13;5.17;;;5.30;99.90;;;;;;5023022;28;35934;-81
2024/01/06 06:19:17;;;;;;;6.00;5.17;;;5.40;99.90;;;;;;5023614;28;39955;-80
2024/01/06 06:21:43;;;;;;;8.93;5.27;;;5.30;99.90;;;;;;5025711;28;39416;-81
2024/01/06 06:24:12;;;;;;;8.13;5.07;;;5.30;99.90;;;;;;5028092;28;38884;-81
2024/01/06 06:26:38;;;;;;;9.87;5.63;;;5.30;99.90;;;;;;5027000;28;36915;-81
2024/01/06 06:29:04;;;;;;;8.37;5.77;;;5.40;99.90;;;;;;5023464;28;38065;-81
2024/01/06 06:31:30;;;;;;;7.57;5.47;;;5.40;99.90;;;;;;5028320;28;40536;-81
2024/01/06 06:33:56;;;;;;;8.10;5.57;;;5.40;99.90;;;;;;5008864;28;37490;-81
2024/01/06 06:36:22;;;;;;;8.07;5.37;;;5.40;99.90;;;;;;5003532;28;36870;-82
2024/01/06 06:38:49;;;;;;;11.47;5.67;;;5.30;99.90;;;;;;5024900;28;39008;-80
2024/01/06 06:41:16;;;;;;;7.77;5.47;;;5.30;99.90;;;;;;5006706;28;37565;-81
2024/01/06 06:43:42;;;;;;;8.13;5.27;;;5.30;99.90;;;;;;5014612;28;38416;-81
2024/01/06 06:46:08;;;;;;;7.67;5.93;;;5.30;99.90;;;;;;5010209;28;37299;-80
2024/01/06 06:48:40;;;;;;;9.60;5.80;;;5.30;99.90;;;;;;5007260;28;39605;-80
2024/01/06 06:51:06;;;;;;;11.17;5.40;;;5.30;99.90;;;;;;4997734;28;40047;-81
2024/01/06 06:53:32;;;;;;;7.13;5.20;;;5.30;99.90;;;;;;5019625;28;36822;-82
2024/01/06 06:55:58;;;;;;;7.77;4.97;;;5.30;99.90;;;;;;5017584;28;37544;-82
2024/01/06 06:58:25;;;;;;;6.63;4.77;;;5.30;99.90;;;;;;5015317;28;39118;-81
2024/01/06 07:00:51;;;;;;;5.77;4.50;;;5.30;99.90;;;;;;5023774;28;38839;-81
2024/01/06 07:03:17;;;;;;;5.67;4.23;;;5.30;99.90;;;;;;5010185;28;37583;-81
2024/01/06 07:05:55;;;;;;;5.83;4.20;;;5.30;99.90;;;;;;5025010;28;38631;-81
2024/01/06 07:08:21;;;;;;;5.70;4.00;;;5.40;99.90;;;;;;5008278;28;39108;-81
2024/01/06 07:10:47;;;;;;;8.33;4.70;;;5.40;99.90;;;;;;5013566;28;39813;-82
2024/01/06 07:13:13;;;;;;;7.63;5.00;;;5.40;99.90;;;;;;5026083;28;39642;-80
2024/01/06 07:15:39;;;;;;;13.10;5.33;;;5.40;99.90;;;;;;5013366;28;37061;-81
2024/01/06 07:18:06;;;;;;;8.40;4.70;;;5.40;99.90;;;;;;5009810;28;39891;-81
2024/01/06 07:20:32;;;;;;;7.17;4.90;;;5.40;99.90;;;;;;5027231;28;39413;-80
2024/01/06 07:22:58;;;;;;;7.77;5.00;;;5.40;99.90;;;;;;5008163;28;38162;-82
2024/01/06 07:25:25;;;;;;;6.20;4.87;;;5.40;99.90;;;;;;5002823;28;37557;-80
2024/01/06 07:27:51;;;;;;;6.70;3.77;;;5.40;99.90;;;;;;5024432;28;39292;-80
2024/01/06 07:30:17;;;;;;;5.43;3.67;;;5.30;99.90;;;;;;5008377;28;38772;-81
2024/01/06 07:32:43;;;;;;;4.93;3.47;;;5.30;99.90;;;;;;5027450;28;39578;-80
2024/01/06 07:35:09;;;;;;;11.77;3.47;;;5.40;99.90;;;;;;5022468;28;40040;-80
2024/01/06 07:37:38;;;;;;;9.07;4.23;;;5.40;99.90;;;;;;5024574;28;38378;-80
2024/01/06 07:40:06;;;;;;;8.27;4.03;;;5.40;99.90;;;;;;5007641;28;38621;-80
2024/01/06 07:42:32;;;;;;;5.57;3.43;;;5.40;99.90;;;;;;5016219;28;47064;-81
2024/01/06 07:44:58;;;;;;;5.93;4.00;;;5.40;99.90;;;;;;5004015;28;38921;-81
2024/01/06 07:47:25;;;;;;;7.67;3.50;;;5.40;99.90;;;;;;5008652;28;40910;-81
2024/01/06 07:49:52;;;;;;;7.00;4.33;;;5.40;99.90;;;;;;5011217;28;39740;-80
2024/01/06 07:52:19;;;;;;;6.20;4.23;;;5.40;99.90;;;;;;5026264;28;39130;-80
2024/01/06 07:54:45;;;;;;;8.73;5.30;;;5.40;99.90;;;;;;5008436;28;36360;-81
2024/01/06 07:57:13;;;;;;;9.43;5.23;;;5.40;99.90;;;;;;5013724;28;40317;-80
2024/01/06 07:59:43;;;;;;;6.13;5.17;;;5.40;99.90;;;;;;5032793;28;39287;-81
2024/01/06 08:02:10;;;;;;;8.00;5.00;;;5.40;99.90;;;;;;5024289;28;38468;-80
2024/01/06 08:04:38;;;;;;;8.67;4.33;;;5.40;99.90;;;;;;5032434;28;38039;-81
2024/01/06 08:07:24;;;;;;;8.17;4.07;;;5.40;99.90;;;;;;5010530;28;38624;-80
2024/01/06 08:09:50;;;;;;;7.90;4.00;;;5.40;99.90;;;;;;5022971;28;37787;-80
2024/01/06 08:12:16;;;;;;;7.60;4.10;;;5.40;99.90;;;;;;5019751;28;41455;-81
2024/01/06 08:14:42;;;;;;;6.70;3.90;;;5.40;99.90;;;;;;5023634;28;37697;-80
2024/01/06 08:17:09;;;;;;;6.87;3.60;;;5.40;99.90;;;;;;5000723;28;37433;-80
2024/01/06 08:19:35;;;;;;;6.03;3.67;;;5.40;99.90;;;;;;5001916;28;40289;-80
2024/01/06 08:22:02;;;;;;;5.33;3.50;;;5.40;99.90;;;;;;5004107;28;38790;-79
2024/01/06 08:24:28;;;;;;;5.97;3.40;;;5.40;99.90;;;;;;5023139;28;39901;-81
2024/01/06 08:26:54;;;;;;;5.37;3.37;;;5.30;99.90;;;;;;5014130;28;37443;-80
2024/01/06 08:29:20;;;;;;;4.47;3.27;;;5.30;99.90;;;;;;4999886;28;38845;-82
2024/01/06 08:31:47;;;;;;;4.17;2.97;;;5.40;99.90;;;;;;5016261;28;37857;-80
2024/01/06 08:34:14;;;;;;;4.83;2.70;;;5.30;99.90;;;;;;5012653;28;39245;-81
2024/01/06 08:36:41;;;;;;;4.43;2.47;;;5.30;99.90;;;;;;5001984;28;39386;-82
2024/01/06 08:39:08;;;;;;;5.33;3.00;;;5.30;99.90;;;;;;5005841;28;38540;-81
2024/01/06 08:49:22;;;;;;;6.97;3.67;;;5.30;99.90;;;;;;6025185;23;19923;-80
2024/01/06 08:51:53;;;;;;;4.80;3.20;;;5.40;99.90;;;;;;4994583;28;38099;-80
2024/01/06 08:54:49;;;;;;;6.45;3.47;;;5.40;99.90;;;;;;4998537;28;37394;-82
2024/01/06 08:57:15;;;;;;;6.00;3.00;;;5.40;99.90;;;;;;5007199;28;40285;-80
2024/01/06 08:59:47;;;;;;;4.57;3.40;;;5.50;99.90;;;;;;5023247;28;41126;-79
2024/01/06 09:02:13;;;;;;;5.95;3.20;;;5.50;99.90;;;;;;5013424;28;40054;-76
2024/01/06 09:04:47;;;;;;;4.73;3.30;;;5.50;99.90;;;;;;5015282;28;38321;-79
2024/01/06 09:07:13;;;;;;;5.17;3.47;;;5.50;99.90;;;;;;5002930;28;39129;-80
2024/01/06 09:09:39;;;;;;;4.37;3.63;;;5.50;99.90;;;;;;5000289;28;38256;-80
2024/01/06 09:12:09;;;;;;;6.63;3.40;;;5.40;99.90;;;;;;5013085;28;38748;-79
2024/01/06 09:14:35;;;;;;;6.03;3.67;;;5.40;99.90;;;;;;5024918;28;37792;-78
2024/01/06 09:17:04;;;;;;;4.30;3.10;;;5.40;99.90;;;;;;5018050;28;38517;-79
2024/01/06 09:19:30;;;;;;;5.27;3.20;;;5.50;99.90;;;;;;5024134;28;49433;-81
2024/01/06 09:22:08;;;;;;;5.40;3.47;;;5.50;99.90;;;;;;5034135;28;37367;-79
2024/01/06 09:24:35;;;;;;;7.37;3.03;;;5.50;99.90;;;;;;5031071;28;49321;-82
2024/01/06 09:27:01;;;;;;;7.03;3.00;;;5.40;99.90;;;;;;5011986;28;37848;-81
2024/01/06 09:29:40;;;;;;;5.27;3.03;;;5.50;99.90;;;;;;5036987;28;49167;-81
2024/01/06 09:32:09;;;;;;;6.00;2.80;;;5.40;99.90;;;;;;5025249;28;39845;-82
2024/01/06 09:34:35;;;;;;;6.03;3.07;;;5.50;99.90;;;;;;5031655;28;37292;-82
2024/01/06 09:37:01;;;;;;;5.43;3.20;;;5.50;99.90;;;;;;5033143;28;39178;-81
2024/01/06 09:39:27;;;;;;;8.57;3.00;;;5.60;99.90;;;;;;5029642;28;40369;-80
2024/01/06 09:41:53;;;;;;;8.97;2.80;;;5.60;99.90;;;;;;5023323;28;39582;-80
2024/01/06 09:44:19;;;;;;;7.90;3.00;;;5.60;99.90;;;;;;4995845;28;38416;-79
2024/01/06 09:46:45;;;;;;;4.93;2.80;;;5.60;99.90;;;;;;4989280;28;39680;-76
2024/01/06 09:49:13;;;;;;;5.57;3.20;;;5.60;99.90;;;;;;5002521;28;39425;-79
2024/01/06 09:51:41;;;;;;;4.47;2.47;;;5.70;99.90;;;;;;5014433;28;37404;-81
2024/01/06 09:54:14;;;;;;;5.43;2.70;;;5.60;99.90;;;;;;5020026;28;36350;-80
2024/01/06 09:56:49;;;;;;;5.23;2.70;;;5.60;99.90;;;;;;5030346;23;39176;-80
2024/01/06 09:59:16;;;;;;;5.70;2.47;;;5.60;99.90;;;;;;5026498;23;39249;-78
2024/01/06 10:01:42;;;;;;;7.37;3.30;;;5.60;99.90;;;;;;5027816;28;37088;-80
2024/01/06 10:04:09;;;;;;;4.00;2.43;;;5.60;99.90;;;;;;4995002;28;37423;-79
2024/01/06 10:06:42;;;;;;;2.73;2.30;;;5.60;99.90;;;;;;5022921;28;40184;-80
2024/01/06 10:09:08;;;;;;;5.97;2.60;;;5.60;99.90;;;;;;5001481;28;37880;-78
2024/01/06 10:11:36;;;;;;;4.70;2.00;;;5.70;99.90;;;;;;5000953;28;39083;-80
2024/01/06 10:14:03;;;;;;;3.10;2.00;;;5.70;99.90;;;;;;5020047;28;37740;-81
2024/01/06 10:16:30;;;;;;;3.40;2.13;;;5.80;99.90;;;;;;5016776;28;48934;-79
2024/01/06 10:18:56;;;;;;;4.70;2.30;;;5.90;99.90;;;;;;5003420;28;36608;-79
2024/01/06 10:21:22;;;;;;;4.07;2.10;;;5.90;99.90;;;;;;5000270;28;37353;-79
2024/01/06 10:23:49;;;;;;;3.43;2.10;;;6.00;99.90;;;;;;5023742;28;37389;-79
2024/01/06 10:26:15;;;;;;;3.73;2.30;;;6.00;99.90;;;;;;5010652;28;38929;-79
2024/01/06 10:28:41;;;;;;;5.10;2.20;;;6.00;99.90;;;;;;4999261;28;37815;-78
2024/01/06 10:31:08;;;;;;;11.90;2.63;;;5.90;99.90;;;;;;5000588;28;37826;-78
2024/01/06 10:33:35;;;;;;;4.17;1.87;;;6.00;99.90;;;;;;4999818;28;37030;-79
2024/01/06 10:36:04;;;;;;;5.87;2.50;;;6.00;99.90;;;;;;5014456;28;39052;-79
2024/01/06 10:38:30;;;;;;;2.93;1.70;;;6.10;99.90;;;;;;4999304;28;37662;-79
2024/01/06 10:41:06;;;;;;;5.57;2.23;;;6.10;99.90;;;;;;5016587;28;38815;-79
2024/01/06 10:43:43;;;;;;;3.47;2.10;;;6.10;99.90;;;;;;5015048;28;48706;-79
2024/01/06 10:46:10;;;;;;;5.20;2.30;;;6.10;99.90;;;;;;4996004;28;37783;-80
2024/01/06 10:48:42;;;;;;;8.73;2.30;;;6.00;99.90;;;;;;4992902;28;37476;-79
2024/01/06 10:51:09;;;;;;;5.40;2.00;;;6.00;99.90;;;;;;4997851;28;37673;-79
2024/01/06 10:53:37;;;;;;;4.67;1.90;;;6.00;99.90;;;;;;5020044;28;36924;-79
2024/01/06 10:56:04;;;;;;;6.70;2.10;;;6.00;99.90;;;;;;4996464;28;38319;-79
2024/01/06 10:58:37;;;;;;;4.77;2.10;;;6.00;99.90;;;;;;5015214;28;38531;-79
2024/01/06 11:01:03;;;;;;;7.43;2.40;;;5.90;99.90;;;;;;5027295;28;37857;-80
2024/01/06 11:03:30;;;;;;;4.03;2.30;;;5.90;99.90;;;;;;5013442;28;37178;-80
2024/01/06 11:05:58;;;;;;;4.40;2.03;;;6.00;99.90;;;;;;5003293;28;37860;-79
2024/01/06 11:08:28;;;;;;;2.97;1.63;;;6.20;99.90;;;;;;5008118;28;39166;-80
2024/01/06 11:10:54;;;;;;;3.73;1.73;;;6.20;99.90;;;;;;5029523;28;38695;-81
2024/01/06 11:13:24;;;;;;;6.30;2.03;;;6.20;99.90;;;;;;5002714;28;39097;-78
2024/01/06 11:15:52;;;;;;;3.30;1.90;;;6.20;99.90;;;;;;5007410;28;37462;-80
2024/01/06 11:18:38;;;;;;;3.73;2.00;;;6.20;99.90;;;;;;5008841;28;37849;-80
2024/01/06 11:21:41;;;;;;;3.77;1.80;;;6.20;99.90;;;;;;4991814;28;40306;-81
2024/01/06 11:24:16;;;;;;;;;;;6.10;99.90;;;;;;5434628;23;38841;-81
2024/01/06 11:32:19;;;;;;;7.03;2.07;;;5.90;99.90;;;;;;5485398;23;20055;-80
2024/01/06 11:34:50;;;;;;;7.30;2.13;;;5.90;99.90;;;;;;5002196;28;37801;-80
2024/01/06 11:37:41;;;;;;;3.67;2.70;;;5.90;99.90;;;;;;4987536;28;37609;-79
2024/01/06 11:40:20;;;;;;;5.43;2.47;;;5.90;99.90;;;;;;5006813;28;38317;-78
2024/01/06 11:43:00;;;;;;;7.33;2.97;;;5.90;99.90;;;;;;5010653;28;39845;-80
2024/01/06 11:45:26;;;;;;;4.47;2.40;;;5.80;99.90;;;;;;4990332;28;37216;-81
2024/01/06 11:48:02;;;;;;;6.23;2.80;;;5.80;99.90;;;;;;4995745;28;37349;-79
2024/01/06 11:50:29;;;;;;;5.63;2.93;;;5.90;99.90;;;;;;5029240;23;48029;-80
2024/01/06 11:52:56;;;;;;;4.17;2.50;;;5.90;99.90;;;;;;4992782;28;37748;-80
2024/01/06 11:55:22;;;;;;;8.53;3.10;;;6.00;99.90;;;;;;4995720;28;33831;-79
2024/01/06 11:57:50;;;;;;;7.07;2.77;;;6.00;99.90;;;;;;4991735;28;39271;-81
2024/01/06 12:00:17;;;;;;;6.50;2.70;;;6.00;99.90;;;;;;4995926;28;39725;-78
2024/01/06 12:02:43;;;;;;;3.57;2.40;;;6.00;99.90;;;;;;4994852;28;39212;-78
2024/01/06 12:05:18;;;;;;;5.90;3.20;;;6.00;99.90;;;;;;5002200;28;37011;-81
2024/01/06 12:07:54;;;;;;;4.33;2.47;;;6.00;99.90;;;;;;5010074;28;39258;-79
2024/01/06 12:10:32;;;;;;;6.73;2.80;;;6.10;99.90;;;;;;5021026;28;41457;-80
2024/01/06 12:13:03;;;;;;;5.10;2.23;;;6.10;99.90;;;;;;5010725;28;37690;-80
2024/01/06 12:15:32;;;;;;;5.17;2.77;;;6.10;99.90;;;;;;5000515;28;46886;-78
2024/01/06 12:17:59;;;;;;;4.23;2.03;;;6.00;99.90;;;;;;5010936;28;37526;-79
2024/01/06 12:20:28;;;;;;;5.30;2.47;;;6.00;99.90;;;;;;5007876;28;37579;-79
2024/01/06 12:22:55;;;;;;;6.80;2.13;;;6.00;99.90;;;;;;4986714;28;38510;-81
2024/01/06 12:25:28;;;;;;;2.53;1.83;;;6.00;96.90;;;;;;5011233;28;35875;-80
2024/01/06 12:27:55;;;;;;;6.87;2.27;;;6.00;93.60;;;;;;4979545;28;38243;-80
2024/01/06 12:30:25;;;;;;;4.23;1.80;;;6.00;95.20;;;;;;4984528;28;39373;-81
2024/01/06 12:35:22;;;;;;;5.23;2.17;;;6.00;96.20;;;;;;4976201;28;20063;-79
2024/01/06 12:37:49;;;;;;;3.10;1.80;;;6.00;96.00;;;;;;4967670;28;37911;-79
2024/01/06 12:40:17;;;;;;;4.03;2.90;;;6.00;95.70;;;;;;4971599;28;39579;-78
2024/01/06 12:42:43;;;;;;;5.73;1.87;;;5.90;95.80;;;;;;4958486;28;37288;-79
2024/01/06 12:45:10;;;;;;;6.90;2.10;;;5.90;97.80;;;;;;4960111;28;36161;-81
2024/01/06 12:47:38;;;;;;;4.07;2.60;;;5.90;99.40;;;;;;4969870;28;38104;-79
2024/01/06 12:50:05;;;;;;;5.60;2.37;;;5.80;98.80;;;;;;4968572;28;38015;-79
2024/01/06 12:52:31;;;;;;;4.20;2.00;;;5.90;99.90;;;;;;4945009;28;46950;-77
2024/01/06 12:54:57;;;;;;;6.50;2.13;;;5.90;99.90;;;;;;4967335;28;38470;-78
2024/01/06 12:57:23;;;;;;;4.53;2.23;;;5.90;99.90;;;;;;4986100;28;39949;-80
2024/01/06 12:59:49;;;;;;;2.73;1.70;;;6.00;99.90;;;;;;4953543;28;40451;-79
2024/01/06 13:02:16;;;;;;;3.77;1.60;;;6.00;94.60;;;;;;4965129;28;39087;-79
2024/01/06 13:04:43;;;;;;;3.83;1.80;;;6.10;92.60;;;;;;4954186;28;38526;-79
2024/01/06 13:07:09;;;;;;;2.30;1.50;;;6.10;87.90;;;;;;4973174;28;36918;-78
2024/01/06 13:09:36;;;;;;;3.80;1.47;;;6.20;76.00;;;;;;4955768;28;41406;-78
2024/01/06 13:12:02;;;;;;;2.97;1.27;;;6.20;85.50;;;;;;4956825;28;38757;-78
2024/01/06 13:14:29;;;;;;;3.17;1.30;;;6.20;79.00;;;;;;4954761;28;37360;-79
2024/01/06 13:16:56;;;;;;;2.73;1.27;;;6.20;81.10;;;;;;4947259;28;38915;-79